Portada
METAR-TAF:

METAR-TAF

Aeropuertos :

Aeropuerto de Ängelholm-Helsingborg

Helsingborg, Suecia

latitud: 56-17-46N, longitud: 012-50-50E, altitud: 21 m

Observación

El informe se hizo hace 44 minutos, a las 05:50 UTC
Viento 4 kt del sureste
Temperatura 13°C
Humedad 82%
Presión 1034 hPa
Visibilidad 10 km o más

METAR: ESTA 260550Z AUTO 14004KT 9999 NCD 13/10 Q1034

Hora: 08:34 (06:34 UTC)

Pronóstico

El informe se hizo hace 22 horas y 23 minutos, a las 08:11 UTC
Pronóstico válido del 25 a las 09 UTC al 25 a las 13 UTC
Viento 5 kt del noreste
Visibilidad 10 km o más
Nubes dispersas a una altura de 2000 ft

TAF: ESTA 250811Z 2509/2513 04005KT 9999 SCT020

Observaciones y pronósticos meteorológicos de más de 4000 aeropuertos (mensajes METAR y TAF).

Los puntos amarillos y rojos representan las estaciones disponibles.

Ponga el ratón en el punto deseado para ver el nombre de la estación.

Haga clic para ver las observaciones y los pronósticos meteorológicos.

Para cambiar el mapa : haga clic en los botones verdes con una cruz de color negro para hacer un zoom, en el botón verde con un guión para alejar o en las flechas verdes para mapas adyacentes.


METAR-TAF: